Time;durP1;ratioP1;P1;durP2;ratioP2;P2;SDS_P1;SDS_P2;PMS_P1;PMS_P2;Temp;Humidity;BMP_temperature;BMP_pressure;BME280_temperature;BME280_humidity;BME280_pressure;Samples;Min_cycle;Max_cycle;Signal;HPM_P1;HPM_P2
2021/04/18 03:29:04;;;;;;;11.97;10.77;;;5.90;99.90;;;;;;5942052;23;20420;-85
2021/04/18 03:31:32;;;;;;;11.03;9.93;;;5.90;99.90;;;;;;6031847;23;20451;-85
2021/04/18 03:34:05;;;;;;;12.00;11.00;;;5.90;99.90;;;;;;6074182;23;20420;-85
2021/04/18 03:45:15;;;;;;;14.20;10.43;;;5.90;99.90;;;;;;5879014;24;20801;-85
2021/04/18 03:47:44;;;;;;;12.20;11.00;;;6.00;99.90;;;;;;5929986;24;20193;-85
2021/04/18 03:50:13;;;;;;;11.30;10.10;;;6.00;99.90;;;;;;5910199;24;20450;-85
2021/04/18 03:53:02;;;;;;;11.27;9.80;;;6.00;99.90;;;;;;5995049;24;20911;-85
2021/04/18 03:55:31;;;;;;;12.10;10.70;;;6.00;99.90;;;;;;5962858;23;20443;-85
2021/04/18 03:58:01;;;;;;;12.37;11.07;;;6.00;99.90;;;;;;6041621;23;20432;-85
2021/04/18 04:00:30;;;;;;;12.23;11.13;;;6.00;99.90;;;;;;6041891;23;20951;-85
2021/04/18 04:03:01;;;;;;;10.40;9.27;;;6.00;99.90;;;;;;6042465;23;20450;-85
2021/04/18 04:05:33;;;;;;;10.27;9.23;;;6.00;99.90;;;;;;6019166;23;20411;-85
2021/04/18 04:08:09;;;;;;;10.77;9.67;;;6.00;99.90;;;;;;6041774;23;20509;-85
2021/04/18 04:10:40;;;;;;;12.30;10.00;;;6.00;99.90;;;;;;6042192;23;20448;-85
2021/04/18 04:13:12;;;;;;;10.97;9.87;;;6.00;99.90;;;;;;6070940;23;20417;-85
2021/04/18 04:23:35;;;;;;;10.33;9.23;;;6.00;99.90;;;;;;6057313;23;20479;-85
2021/04/18 04:30:23;;;;;;;12.00;10.80;;;6.00;99.90;;;;;;5713382;25;20459;-85
2021/04/18 04:32:58;;;;;;;10.63;9.53;;;6.00;99.90;;;;;;5742961;24;20728;-85
2021/04/18 04:35:30;;;;;;;11.30;9.90;;;6.00;99.90;;;;;;5956673;23;20453;-85
2021/04/18 04:37:58;;;;;;;11.50;10.20;;;6.00;99.90;;;;;;6013615;23;20885;-85
2021/04/18 04:40:27;;;;;;;12.47;11.27;;;6.00;99.90;;;;;;6013887;23;21026;-85
2021/04/18 04:42:57;;;;;;;13.33;10.90;;;6.00;99.90;;;;;;5990747;23;20434;-85
2021/04/18 04:45:24;;;;;;;10.97;9.83;;;6.00;99.90;;;;;;6112724;23;20424;-85
2021/04/18 04:48:01;;;;;;;10.77;9.73;;;6.00;99.90;;;;;;6129498;23;20419;-85
2021/04/18 05:04:05;;;;;;;10.33;9.33;;;6.10;99.90;;;;;;5858768;24;20548;-85
2021/04/18 05:25:55;;;;;;;12.33;11.00;;;6.30;99.90;;;;;;5881711;24;20227;-85
2021/04/18 05:28:23;;;;;;;11.40;10.20;;;6.30;99.90;;;;;;6042230;23;20992;-84
2021/04/18 05:37:59;;;;;;;12.30;10.40;;;6.40;99.90;;;;;;5784527;23;20456;-85
2021/04/18 05:40:28;;;;;;;14.07;10.70;;;6.50;99.90;;;;;;6047883;23;20577;-85
2021/04/18 05:42:57;;;;;;;12.87;10.80;;;6.50;99.90;;;;;;6047887;23;20426;-85
2021/04/18 05:58:52;;;;;;;11.07;9.90;;;6.60;99.90;;;;;;5903264;24;20437;-85
2021/04/18 06:05:49;;;;;;;13.87;10.87;;;6.70;99.90;;;;;;5843860;24;20425;-85
2021/04/18 06:08:19;;;;;;;10.37;9.37;;;6.80;99.90;;;;;;5890588;23;20938;-85
2021/04/18 06:10:51;;;;;;;11.47;9.50;;;6.90;99.90;;;;;;6036956;23;20441;-85
2021/04/18 06:13:22;;;;;;;10.70;9.67;;;7.20;99.90;;;;;;6076438;23;20517;-85
2021/04/18 06:15:49;;;;;;;11.90;9.63;;;7.40;99.90;;;;;;6100660;23;20465;-85
2021/04/18 06:18:18;;;;;;;14.00;10.17;;;7.70;99.90;;;;;;6115625;23;20485;-85
2021/04/18 06:20:48;;;;;;;14.43;10.20;;;8.00;99.90;;;;;;6165185;23;20476;-85
2021/04/18 06:23:22;;;;;;;10.50;8.63;;;8.20;99.90;;;;;;6137141;23;20876;-85
2021/04/18 06:25:49;;;;;;;9.43;8.47;;;8.50;99.90;;;;;;6161445;23;20421;-85
2021/04/18 06:28:22;;;;;;;9.50;7.67;;;8.70;99.90;;;;;;6160048;23;20443;-85
2021/04/18 06:30:51;;;;;;;10.97;8.10;;;8.90;99.90;;;;;;6136043;23;20443;-85
2021/04/18 06:33:19;;;;;;;8.67;7.83;;;9.10;99.90;;;;;;6160148;23;20451;-85
2021/04/18 06:35:50;;;;;;;9.13;7.63;;;9.30;99.90;;;;;;6135193;23;20926;-85
2021/04/18 06:38:17;;;;;;;8.40;7.57;;;9.60;99.90;;;;;;6171504;23;20387;-85
2021/04/18 06:40:46;;;;;;;8.63;6.73;;;9.80;99.90;;;;;;6136994;23;20441;-85
2021/04/18 06:43:19;;;;;;;8.90;6.73;;;10.00;99.90;;;;;;6159991;23;20421;-85
2021/04/18 06:45:50;;;;;;;7.53;6.73;;;10.30;99.90;;;;;;6134990;23;20418;-85
2021/04/18 06:48:33;;;;;;;8.50;6.60;;;10.50;99.90;;;;;;6135643;23;20734;-85
2021/04/18 06:51:04;;;;;;;11.50;6.53;;;10.80;99.90;;;;;;6135316;23;20427;-85
2021/04/18 06:53:31;;;;;;;7.00;6.30;;;11.00;99.90;;;;;;6135171;23;20419;-85
2021/04/18 06:56:03;;;;;;;6.43;5.77;;;11.20;99.90;;;;;;6133857;23;20493;-85
2021/04/18 06:58:31;;;;;;;9.60;5.43;;;11.30;99.90;;;;;;6135161;23;20415;-85
2021/04/18 07:00:59;;;;;;;6.47;5.87;;;11.50;99.90;;;;;;6134386;23;20426;-85
2021/04/18 07:03:26;;;;;;;7.10;5.33;;;11.60;99.90;;;;;;6134293;23;20419;-85
2021/04/18 07:05:57;;;;;;;7.33;6.63;;;11.70;99.90;;;;;;6133974;23;20422;-85
2021/04/18 07:08:26;;;;;;;7.10;6.40;;;11.80;99.90;;;;;;6133765;23;20418;-85
2021/04/18 07:11:11;;;;;;;5.40;4.83;;;11.90;99.90;;;;;;6158124;23;20466;-84
2021/04/18 07:13:40;;;;;;;8.73;6.07;;;12.00;99.90;;;;;;6133730;23;20415;-84
2021/04/18 07:16:22;;;;;;;12.27;6.10;;;12.00;99.70;;;;;;6134740;23;20470;-84
2021/04/18 07:18:50;;;;;;;10.90;5.17;;;12.10;99.70;;;;;;6133862;23;20419;-84
2021/04/18 07:21:18;;;;;;;6.87;6.27;;;12.20;99.80;;;;;;6133893;23;20427;-84
2021/04/18 07:23:46;;;;;;;6.63;6.00;;;12.30;99.80;;;;;;6170159;23;20408;-84
2021/04/18 07:26:21;;;;;;;8.00;6.37;;;12.50;99.80;;;;;;6169723;23;20467;-84
2021/04/18 07:28:50;;;;;;;9.87;6.33;;;12.70;99.60;;;;;;6167675;23;20372;-83
2021/04/18 07:31:31;;;;;;;8.30;5.37;;;12.80;99.30;;;;;;6131819;23;20428;-83
2021/04/18 07:34:01;;;;;;;7.30;5.80;;;12.90;99.20;;;;;;6130000;23;20946;-82
2021/04/18 07:36:28;;;;;;;6.40;5.70;;;13.10;97.80;;;;;;6131536;23;20184;-83
2021/04/18 07:38:56;;;;;;;6.97;6.17;;;13.10;97.90;;;;;;6131326;23;20443;-83
2021/04/18 07:41:25;;;;;;;9.57;5.47;;;13.10;97.60;;;;;;6131685;23;20423;-83
2021/04/18 07:43:53;;;;;;;8.03;5.30;;;13.10;97.80;;;;;;6167096;23;20486;-83
2021/04/18 07:46:23;;;;;;;6.57;5.80;;;13.20;98.00;;;;;;6156090;23;20412;-83
2021/04/18 07:48:51;;;;;;;6.70;5.43;;;13.30;98.00;;;;;;6130907;23;20514;-83
2021/04/18 07:51:19;;;;;;;9.97;6.80;;;13.50;98.10;;;;;;6156441;23;20909;-83
2021/04/18 07:53:50;;;;;;;11.63;5.97;;;13.70;98.00;;;;;;6131014;23;20389;-83
2021/04/18 07:56:18;;;;;;;7.00;5.17;;;13.80;97.80;;;;;;6131548;23;20411;-82
2021/04/18 07:58:46;;;;;;;8.20;5.80;;;13.90;97.70;;;;;;6131219;23;20445;-82
2021/04/18 08:01:13;;;;;;;6.40;5.63;;;14.00;97.70;;;;;;6155718;23;20412;-83
2021/04/18 08:03:43;;;;;;;8.97;5.20;;;14.10;97.30;;;;;;6131252;23;20394;-83
2021/04/18 08:06:12;;;;;;;6.47;5.10;;;14.20;97.30;;;;;;6131108;23;20414;-83
2021/04/18 08:08:45;;;;;;;6.30;5.03;;;14.10;97.00;;;;;;6130989;23;20724;-82
2021/04/18 08:11:15;;;;;;;16.83;10.27;;;14.00;96.80;;;;;;6131444;23;20423;-82
2021/04/18 08:13:44;;;;;;;8.13;6.07;;;13.90;96.80;;;;;;6167680;23;20418;-82
2021/04/18 08:16:12;;;;;;;9.67;5.60;;;13.80;96.90;;;;;;6131416;23;20514;-82
2021/04/18 08:18:41;;;;;;;5.80;5.20;;;13.80;97.10;;;;;;6167079;23;20909;-83
2021/04/18 08:21:27;;;;;;;6.07;5.47;;;13.70;96.60;;;;;;6131226;23;20482;-82
2021/04/18 08:23:56;;;;;;;8.03;6.13;;;13.70;96.60;;;;;;6131665;23;20382;-82
2021/04/18 08:26:28;;;;;;;6.80;5.53;;;13.70;96.50;;;;;;6159629;23;20436;-83
2021/04/18 08:29:13;;;;;;;6.43;5.43;;;13.60;96.20;;;;;;6161357;23;20777;-83
2021/04/18 08:32:04;;;;;;;8.00;5.90;;;13.70;96.30;;;;;;6158177;23;20470;-82
2021/04/18 08:34:44;;;;;;;7.60;6.33;;;13.60;96.20;;;;;;6170757;23;20439;-82
2021/04/18 08:37:22;;;;;;;7.30;6.60;;;13.60;96.20;;;;;;6160754;23;20418;-84
2021/04/18 08:40:03;;;;;;;7.37;5.40;;;13.60;96.20;;;;;;6161665;23;20422;-82
2021/04/18 08:42:31;;;;;;;9.13;5.30;;;13.60;96.10;;;;;;6160883;23;20402;-80
2021/04/18 08:45:00;;;;;;;9.93;5.73;;;13.80;96.10;;;;;;6172640;23;20852;-82
2021/04/18 08:47:30;;;;;;;7.63;6.03;;;13.90;95.90;;;;;;6162911;23;20449;-81
2021/04/18 08:50:07;;;;;;;7.10;5.63;;;13.80;95.80;;;;;;6162856;23;20441;-83
2021/04/18 08:52:36;;;;;;;11.50;6.73;;;13.90;95.90;;;;;;6176167;23;20770;-83
2021/04/18 08:55:06;;;;;;;10.87;6.60;;;14.10;96.00;;;;;;6161775;23;20414;-83
2021/04/18 08:57:34;;;;;;;13.50;6.93;;;14.20;95.80;;;;;;6161224;23;20383;-81
2021/04/18 09:00:06;;;;;;;5.93;4.87;;;14.40;95.70;;;;;;6165320;23;20957;-83
2021/04/18 09:02:35;;;;;;;9.70;5.70;;;14.50;95.40;;;;;;6170823;23;20427;-82
2021/04/18 09:05:07;;;;;;;8.10;5.57;;;14.60;95.30;;;;;;6172223;23;20248;-82
2021/04/18 09:07:36;;;;;;;8.10;5.80;;;14.70;95.00;;;;;;6170991;23;20851;-80
2021/04/18 09:10:13;;;;;;;6.47;5.80;;;14.60;95.00;;;;;;6165188;23;20796;-82
2021/04/18 09:12:41;;;;;;;10.95;6.10;;;14.60;95.10;;;;;;6158863;23;20415;-84
2021/04/18 09:15:12;;;;;;;7.13;5.70;;;14.80;95.00;;;;;;6158563;23;20226;-83
2021/04/18 09:17:47;;;;;;;7.00;5.60;;;14.90;94.90;;;;;;6184261;23;20394;-83
2021/04/18 09:20:17;;;;;;;5.77;5.27;;;15.00;95.00;;;;;;6159657;23;20809;-80
2021/04/18 09:22:45;;;;;;;5.07;4.57;;;15.00;94.70;;;;;;6170399;23;20369;-79
2021/04/18 09:25:15;;;;;;;5.40;4.90;;;15.00;94.50;;;;;;6170953;23;20378;-80
2021/04/18 09:27:44;;;;;;;6.77;5.20;;;15.10;94.60;;;;;;6159791;23;20424;-83
2021/04/18 09:30:15;;;;;;;8.07;5.40;;;15.30;94.70;;;;;;6159612;23;20752;-81
2021/04/18 09:32:45;;;;;;;8.13;5.43;;;15.40;94.40;;;;;;6158049;23;20410;-83
2021/04/18 09:35:15;;;;;;;6.40;5.80;;;15.50;94.30;;;;;;6157684;23;20844;-83
2021/04/18 09:37:44;;;;;;;6.60;5.10;;;15.60;94.10;;;;;;6158228;23;20418;-83
2021/04/18 09:40:15;;;;;;;5.83;5.07;;;15.70;93.90;;;;;;6182979;23;20446;-82
2021/04/18 09:42:46;;;;;;;7.00;5.50;;;15.70;93.70;;;;;;6158644;23;20477;-82
2021/04/18 09:45:16;;;;;;;5.13;4.63;;;15.80;93.60;;;;;;6157633;23;20779;-82
2021/04/18 09:47:46;;;;;;;6.57;5.40;;;15.90;93.40;;;;;;6157214;23;20437;-81
2021/04/18 09:50:17;;;;;;;9.57;5.97;;;15.80;93.20;;;;;;6158627;23;20443;-82
2021/04/18 09:52:45;;;;;;;8.07;5.70;;;15.80;93.10;;;;;;6158278;23;20751;-82
2021/04/18 09:55:19;;;;;;;7.20;5.30;;;15.80;93.00;;;;;;6157698;23;20471;-81
2021/04/18 09:57:49;;;;;;;7.83;5.40;;;15.80;93.10;;;;;;6158093;23;20491;-82
2021/04/18 10:00:23;;;;;;;6.20;5.10;;;15.80;93.20;;;;;;6158094;23;21003;-82
2021/04/18 10:03:02;;;;;;;8.57;5.53;;;15.90;93.20;;;;;;6158058;23;20389;-79
2021/04/18 10:05:31;;;;;;;7.83;4.93;;;16.00;92.90;;;;;;6157855;23;20386;-82
2021/04/18 10:08:20;;;;;;;6.87;5.70;;;16.10;92.90;;;;;;6157812;23;20452;-83
2021/04/18 10:10:49;;;;;;;8.83;6.50;;;16.10;92.60;;;;;;6158583;23;20783;-82
2021/04/18 10:13:33;;;;;;;6.80;6.10;;;16.10;92.60;;;;;;6159260;23;20420;-81
2021/04/18 10:16:28;;;;;;;6.87;5.90;;;16.10;92.30;;;;;;6158070;23;20882;-83
2021/04/18 10:19:11;;;;;;;7.07;5.07;;;16.00;92.20;;;;;;6159112;23;20429;-83
2021/04/18 10:21:48;;;;;;;8.52;6.10;;;16.10;92.30;;;;;;6160054;23;20424;-82
2021/04/18 10:24:37;;;;;;;8.87;7.53;;;16.20;91.60;;;;;;6160082;23;20199;-82
2021/04/18 10:27:19;;;;;;;7.33;5.70;;;16.20;91.50;;;;;;6158957;23;20522;-82
2021/04/18 10:29:55;;;;;;;5.70;5.20;;;16.30;91.60;;;;;;6161103;23;20491;-84
2021/04/18 10:32:36;;;;;;;7.17;6.00;;;16.30;91.10;;;;;;6172498;23;20401;-82
2021/04/18 10:35:12;;;;;;;12.07;5.60;;;16.30;91.20;;;;;;6162562;23;20431;-82
2021/04/18 10:37:46;;;;;;;7.60;6.30;;;16.40;91.10;;;;;;6158391;23;20399;-82
2021/04/18 10:40:22;;;;;;;8.53;6.33;;;16.40;91.30;;;;;;6156391;23;20446;-82
2021/04/18 10:42:56;;;;;;;7.97;6.03;;;16.50;91.20;;;;;;6133370;23;20418;-82
2021/04/18 10:45:31;;;;;;;8.23;5.00;;;16.60;91.30;;;;;;6156938;23;20478;-82
2021/04/18 10:48:06;;;;;;;7.20;5.70;;;16.70;91.30;;;;;;6158164;23;20400;-81
2021/04/18 10:50:36;;;;;;;5.70;5.20;;;16.70;91.10;;;;;;6156327;23;20503;-80
2021/04/18 10:53:04;;;;;;;6.97;6.10;;;16.80;91.00;;;;;;6156604;23;20426;-81
2021/04/18 10:55:31;;;;;;;8.60;6.10;;;16.70;90.90;;;;;;6167602;23;20974;-81
2021/04/18 10:57:58;;;;;;;7.60;6.13;;;16.70;90.90;;;;;;6156599;23;20414;-81
2021/04/18 11:00:27;;;;;;;9.23;6.20;;;16.60;90.90;;;;;;6156302;23;20444;-83
2021/04/18 11:02:55;;;;;;;6.67;5.53;;;16.60;90.90;;;;;;6156197;23;20779;-81
2021/04/18 11:05:23;;;;;;;6.60;5.70;;;16.60;90.90;;;;;;6156223;23;20482;-83
2021/04/18 11:07:51;;;;;;;7.00;5.63;;;16.60;91.00;;;;;;6155774;23;20448;-81
2021/04/18 11:10:18;;;;;;;6.50;5.47;;;16.60;91.00;;;;;;6155772;23;20435;-81
2021/04/18 11:12:45;;;;;;;6.67;5.93;;;16.70;91.00;;;;;;6156138;23;20488;-83
2021/04/18 11:15:14;;;;;;;6.60;6.00;;;16.70;91.00;;;;;;6155691;23;20444;-82
2021/04/18 11:17:41;;;;;;;6.73;5.23;;;16.70;90.90;;;;;;6156166;23;20423;-83
2021/04/18 11:20:12;;;;;;;7.43;6.50;;;16.80;90.90;;;;;;6157398;23;20855;-81
2021/04/18 11:22:42;;;;;;;7.93;6.53;;;16.80;90.90;;;;;;6157062;23;20421;-81
2021/04/18 11:25:12;;;;;;;8.20;5.33;;;16.80;90.80;;;;;;6157053;23;20414;-81
2021/04/18 11:27:40;;;;;;;8.07;5.40;;;16.80;90.70;;;;;;6156053;23;20427;-81
2021/04/18 11:30:10;;;;;;;6.60;5.07;;;16.80;90.60;;;;;;6156509;23;20454;-81
2021/04/18 11:32:37;;;;;;;6.23;5.13;;;16.80;90.50;;;;;;6156231;23;20416;-81
2021/04/18 11:35:07;;;;;;;7.03;5.50;;;16.70;90.60;;;;;;6180362;23;20441;-83
2021/04/18 11:37:35;;;;;;;8.03;5.90;;;16.80;90.30;;;;;;6155738;23;20176;-82
2021/04/18 11:40:05;;;;;;;5.20;4.70;;;16.80;90.30;;;;;;6155754;23;20490;-82
2021/04/18 11:42:32;;;;;;;6.30;4.73;;;16.80;90.30;;;;;;6156635;23;20428;-80
2021/04/18 11:45:01;;;;;;;6.00;5.40;;;16.80;90.30;;;;;;6156598;23;20488;-81
2021/04/18 11:47:29;;;;;;;7.30;5.20;;;16.80;90.10;;;;;;6156210;23;20254;-82
2021/04/18 11:49:56;;;;;;;6.97;5.40;;;16.90;90.20;;;;;;6156132;23;20530;-82
2021/04/18 11:52:23;;;;;;;7.90;5.63;;;16.90;90.10;;;;;;6167381;23;20408;-84
2021/04/18 11:54:52;;;;;;;7.30;6.07;;;16.90;90.10;;;;;;6156111;23;20490;-81
2021/04/18 11:57:20;;;;;;;6.20;5.60;;;16.90;90.10;;;;;;6156126;23;20471;-81
2021/04/18 11:59:47;;;;;;;8.07;5.27;;;16.80;90.10;;;;;;6155939;23;20439;-82
2021/04/18 12:02:14;;;;;;;8.40;5.47;;;16.80;90.10;;;;;;6155997;23;20915;-82
2021/04/18 12:04:45;;;;;;;8.10;6.00;;;16.80;90.20;;;;;;6156388;23;20720;-84
2021/04/18 12:07:14;;;;;;;6.60;4.83;;;16.80;90.10;;;;;;6156185;23;20411;-84
2021/04/18 12:09:42;;;;;;;11.70;6.10;;;16.80;90.10;;;;;;6155781;23;20451;-82
2021/04/18 12:12:10;;;;;;;6.20;4.90;;;16.80;90.10;;;;;;6168558;23;20429;-85
2021/04/18 12:14:39;;;;;;;6.57;5.87;;;16.80;90.00;;;;;;6157574;23;20519;-86
2021/04/18 12:17:06;;;;;;;5.60;5.10;;;16.80;90.00;;;;;;6158379;23;20830;-85
2021/04/18 12:19:34;;;;;;;7.43;5.70;;;16.80;90.00;;;;;;6157719;23;20778;-85
2021/04/18 12:22:01;;;;;;;6.13;5.53;;;16.80;90.10;;;;;;6158056;23;20427;-83
2021/04/18 12:24:28;;;;;;;6.67;5.17;;;16.90;90.10;;;;;;6156976;23;20422;-84
2021/04/18 12:26:55;;;;;;;8.27;7.30;;;16.90;90.00;;;;;;6168794;23;20415;-85
2021/04/18 12:29:23;;;;;;;5.47;4.97;;;17.00;90.00;;;;;;6157277;23;20930;-85
2021/04/18 12:31:52;;;;;;;6.07;5.57;;;17.00;90.30;;;;;;6157717;23;20614;-89
2021/04/18 12:34:30;;;;;;;6.97;5.90;;;17.10;89.90;;;;;;6169227;23;20390;-87
2021/04/18 12:36:57;;;;;;;6.90;6.20;;;17.00;89.70;;;;;;6159745;23;20457;-85
2021/04/18 12:39:39;;;;;;;9.40;6.90;;;17.00;89.60;;;;;;6156151;23;20443;-85
2021/04/18 12:42:14;;;;;;;8.80;5.77;;;17.00;89.40;;;;;;6181050;23;20469;-84
2021/04/18 12:44:45;;;;;;;6.63;6.03;;;17.00;89.60;;;;;;6180962;23;20312;-84
2021/04/18 12:47:13;;;;;;;6.20;5.60;;;17.00;89.30;;;;;;6156647;23;20177;-84
2021/04/18 12:49:44;;;;;;;6.10;5.50;;;17.10;89.30;;;;;;6156278;23;20447;-84
2021/04/18 12:52:11;;;;;;;7.27;6.53;;;17.10;89.50;;;;;;6167732;23;20904;-84
2021/04/18 12:54:39;;;;;;;7.07;6.37;;;17.10;89.70;;;;;;6156027;23;20410;-85
2021/04/18 12:57:07;;;;;;;7.32;6.50;;;17.20;89.40;;;;;;6154730;23;20440;-84
2021/04/18 12:59:35;;;;;;;9.53;6.20;;;17.30;88.10;;;;;;6156336;23;20195;-85
2021/04/18 13:02:18;;;;;;;6.73;6.13;;;17.30;88.40;;;;;;6157552;23;20415;-85
2021/04/18 13:05:12;;;;;;;7.83;6.80;;;17.20;88.70;;;;;;6155930;23;20502;-84
2021/04/18 13:07:42;;;;;;;7.80;6.73;;;17.20;88.70;;;;;;6156206;23;20441;-83
2021/04/18 13:10:12;;;;;;;9.03;8.17;;;17.20;88.80;;;;;;6155668;23;20443;-83
2021/04/18 13:12:42;;;;;;;7.77;6.97;;;17.10;89.00;;;;;;6167075;23;20407;-85
2021/04/18 13:15:12;;;;;;;8.87;7.23;;;17.10;89.10;;;;;;6156183;23;20412;-85
2021/04/18 13:17:43;;;;;;;25.63;22.97;;;17.10;89.30;;;;;;6155449;23;20409;-84
2021/04/18 13:20:19;;;;;;;8.73;7.83;;;17.00;89.40;;;;;;6155591;23;20441;-84
2021/04/18 13:23:50;;;;;;;8.47;7.70;;;17.00;89.20;;;;;;6147464;23;20454;-84
2021/04/18 13:27:21;;;;;;;7.27;6.50;;;17.00;89.30;;;;;;6114192;23;20510;-84
2021/04/18 13:29:54;;;;;;;9.10;8.20;;;17.00;89.60;;;;;;6140294;23;20518;-86
2021/04/18 13:32:40;;;;;;;77.47;69.43;;;17.00;89.70;;;;;;6169634;23;20445;-86
2021/04/18 13:35:11;;;;;;;11.43;10.10;;;17.10;90.00;;;;;;6157204;23;20525;-87
2021/04/18 13:37:39;;;;;;;41.60;37.80;;;17.20;90.00;;;;;;6157450;23;20419;-85
2021/04/18 13:40:07;;;;;;;9.40;7.43;;;17.20;89.90;;;;;;6157508;23;20518;-86
2021/04/18 13:42:44;;;;;;;9.30;8.40;;;17.30;90.10;;;;;;6157272;23;20507;-84
2021/04/18 13:45:14;;;;;;;10.80;9.80;;;17.40;90.20;;;;;;6157520;23;20907;-85
2021/04/18 13:47:41;;;;;;;13.70;12.40;;;17.40;90.20;;;;;;6157517;23;20431;-85
2021/04/18 13:50:12;;;;;;;28.00;25.10;;;17.40;90.30;;;;;;6182275;23;20459;-86
2021/04/18 13:52:40;;;;;;;9.33;8.53;;;17.40;90.30;;;;;;6157299;23;20511;-84
2021/04/18 13:55:08;;;;;;;9.32;8.43;;;17.40;90.40;;;;;;6156704;23;20425;-83
2021/04/18 13:57:36;;;;;;;10.30;8.80;;;17.50;90.60;;;;;;6157275;23;20511;-84
2021/04/18 14:00:06;;;;;;;8.67;7.73;;;17.60;90.60;;;;;;6157548;23;20502;-84
2021/04/18 14:02:34;;;;;;;72.77;64.93;;;17.60;90.60;;;;;;6157771;23;20423;-86
2021/04/18 14:05:03;;;;;;;9.90;9.00;;;17.70;90.70;;;;;;6157156;23;20428;-84
2021/04/18 14:07:31;;;;;;;24.90;22.23;;;17.80;90.70;;;;;;6156943;23;20183;-83
2021/04/18 14:09:59;;;;;;;8.50;7.33;;;17.80;90.60;;;;;;6168193;23;20493;-84
2021/04/18 14:12:26;;;;;;;8.87;7.97;;;17.80;90.60;;;;;;6157530;23;20791;-85
2021/04/18 14:14:54;;;;;;;9.53;8.70;;;17.80;90.50;;;;;;6157142;23;20436;-84
2021/04/18 14:17:21;;;;;;;11.10;10.00;;;17.80;90.50;;;;;;6157104;23;20439;-84
2021/04/18 14:19:52;;;;;;;8.80;7.90;;;17.90;90.60;;;;;;6157339;23;20445;-85
2021/04/18 14:22:19;;;;;;;10.30;8.50;;;17.90;90.60;;;;;;6156859;23;20427;-84
2021/04/18 14:28:01;;;;;;;12.60;8.20;;;18.00;90.50;;;;;;6161547;23;20454;-85
2021/04/18 14:30:28;;;;;;;8.37;7.63;;;18.00;90.50;;;;;;6135661;23;20954;-85
2021/04/18 14:32:56;;;;;;;9.90;7.77;;;18.10;90.50;;;;;;6143457;23;20943;-85
2021/04/18 14:35:24;;;;;;;11.47;9.70;;;18.10;90.50;;;;;;6105966;23;20449;-85
2021/04/18 14:37:51;;;;;;;13.83;12.50;;;18.00;90.30;;;;;;6105461;23;20416;-85
2021/04/18 14:40:20;;;;;;;11.10;9.07;;;18.00;90.40;;;;;;6105585;23;20461;-85
2021/04/18 14:42:47;;;;;;;11.63;10.43;;;18.00;90.50;;;;;;6106681;23;20965;-85
2021/04/18 14:45:16;;;;;;;15.23;13.87;;;18.10;90.60;;;;;;6130414;23;20431;-85
2021/04/18 14:47:47;;;;;;;10.13;9.10;;;18.20;90.50;;;;;;6106058;23;20452;-85
2021/04/18 14:50:15;;;;;;;10.27;7.93;;;18.20;90.30;;;;;;6105940;23;20554;-85
2021/04/18 14:52:46;;;;;;;9.97;9.00;;;18.10;90.30;;;;;;6106879;23;20483;-85
2021/04/18 14:55:15;;;;;;;8.83;7.80;;;18.10;90.30;;;;;;6141993;23;20393;-85
2021/04/18 14:57:46;;;;;;;9.27;8.23;;;18.10;90.40;;;;;;6130470;23;20421;-85
2021/04/18 15:00:15;;;;;;;8.63;7.77;;;18.10;90.40;;;;;;6107140;23;20444;-85
2021/04/18 15:02:43;;;;;;;7.50;6.67;;;18.10;90.30;;;;;;6106785;23;20411;-85
2021/04/18 15:05:11;;;;;;;8.23;7.40;;;18.00;90.20;;;;;;6106428;23;20441;-85
2021/04/18 15:07:39;;;;;;;8.57;7.87;;;18.00;90.20;;;;;;6105241;23;20420;-85
2021/04/18 15:10:07;;;;;;;7.97;7.27;;;18.00;90.30;;;;;;6143583;23;20493;-85
2021/04/18 15:12:40;;;;;;;8.85;8.05;;;18.00;90.30;;;;;;6106895;23;20429;-84
2021/04/18 15:15:09;;;;;;;10.60;8.27;;;18.10;90.30;;;;;;6109318;23;20183;-85
2021/04/18 15:17:37;;;;;;;7.67;7.03;;;18.20;90.20;;;;;;6112818;23;20413;-85
2021/04/18 15:20:08;;;;;;;7.33;6.70;;;18.10;90.20;;;;;;6107274;23;20444;-86
2021/04/18 15:22:35;;;;;;;8.53;7.83;;;18.10;90.10;;;;;;6141494;23;20396;-85
2021/04/18 15:25:04;;;;;;;8.10;7.33;;;18.10;90.20;;;;;;6105455;23;20451;-86
2021/04/18 15:27:34;;;;;;;8.40;7.60;;;18.10;90.30;;;;;;6106170;23;20416;-86
2021/04/18 15:30:02;;;;;;;8.90;8.00;;;18.00;90.20;;;;;;6105302;23;20479;-85
2021/04/18 15:32:30;;;;;;;9.10;7.93;;;18.00;90.20;;;;;;6139308;23;20786;-85
2021/04/18 15:34:59;;;;;;;9.60;7.60;;;18.00;90.20;;;;;;6104377;23;20459;-85
2021/04/18 15:37:28;;;;;;;8.23;7.50;;;17.90;90.20;;;;;;6102895;23;20444;-85
2021/04/18 15:40:02;;;;;;;8.13;7.33;;;17.90;90.20;;;;;;6104194;23;20443;-85
2021/04/18 15:42:30;;;;;;;9.13;8.10;;;17.90;90.30;;;;;;6106093;23;20483;-85
2021/04/18 15:45:05;;;;;;;8.60;7.70;;;17.80;90.30;;;;;;6141942;23;20776;-85
2021/04/18 15:47:35;;;;;;;8.57;7.87;;;17.80;90.30;;;;;;6105520;23;20744;-85
2021/04/18 15:50:07;;;;;;;9.10;8.20;;;17.80;90.30;;;;;;6105642;23;20432;-85
2021/04/18 15:52:39;;;;;;;8.30;7.60;;;17.80;90.60;;;;;;6105359;23;20426;-85
2021/04/18 15:55:08;;;;;;;8.50;7.70;;;17.70;90.30;;;;;;6129674;23;20496;-85
2021/04/18 15:57:36;;;;;;;10.70;7.47;;;17.70;90.30;;;;;;6105085;23;20504;-86
2021/04/18 16:00:09;;;;;;;8.23;7.43;;;17.60;90.30;;;;;;6140211;23;20483;-84
2021/04/18 16:02:42;;;;;;;8.97;8.20;;;17.60;90.30;;;;;;6139055;23;20390;-85
2021/04/18 16:05:12;;;;;;;9.10;7.50;;;17.50;90.30;;;;;;6103347;23;20416;-86
2021/04/18 16:07:47;;;;;;;8.48;7.68;;;17.50;90.40;;;;;;6102978;23;20418;-86
2021/04/18 16:10:18;;;;;;;9.03;7.43;;;17.50;90.30;;;;;;6102974;23;20252;-86
2021/04/18 16:12:46;;;;;;;8.50;7.63;;;17.50;90.30;;;;;;6103408;23;20499;-86
2021/04/18 16:15:15;;;;;;;8.67;7.80;;;17.50;90.30;;;;;;6103383;23;20444;-86
2021/04/18 16:17:42;;;;;;;8.40;7.40;;;17.50;90.40;;;;;;6103550;23;20444;-86
2021/04/18 16:20:11;;;;;;;8.13;7.37;;;17.40;90.30;;;;;;6104625;23;20448;-86
2021/04/18 16:22:40;;;;;;;7.50;6.77;;;17.50;90.40;;;;;;6104714;23;20417;-86
2021/04/18 16:25:11;;;;;;;8.10;7.23;;;17.40;90.30;;;;;;6104478;23;20507;-86
2021/04/18 16:27:41;;;;;;;7.07;6.20;;;17.40;90.30;;;;;;6103240;23;20428;-86
2021/04/18 16:30:13;;;;;;;8.00;7.20;;;17.40;90.30;;;;;;6102200;23;20440;-86
2021/04/18 16:32:40;;;;;;;8.53;7.00;;;17.40;90.30;;;;;;6127130;23;20397;-86
2021/04/18 16:35:19;;;;;;;7.20;6.53;;;17.40;90.40;;;;;;6111439;23;20420;-86
2021/04/18 16:37:47;;;;;;;7.30;6.60;;;17.40;90.40;;;;;;6109130;23;20511;-86
2021/04/18 16:40:17;;;;;;;8.43;7.03;;;17.40;90.40;;;;;;6108380;23;20443;-87
2021/04/18 16:42:44;;;;;;;8.77;6.93;;;17.40;90.30;;;;;;6145091;23;20740;-86
2021/04/18 16:45:14;;;;;;;9.70;7.47;;;17.40;90.40;;;;;;6109712;23;20424;-87
2021/04/18 16:47:42;;;;;;;7.83;7.10;;;17.40;90.30;;;;;;6109080;23;20423;-87
2021/04/18 16:50:13;;;;;;;8.63;6.80;;;17.40;90.30;;;;;;6134060;23;20446;-87
2021/04/18 16:52:54;;;;;;;7.37;6.60;;;17.30;90.30;;;;;;6145287;23;20400;-87
2021/04/18 16:56:15;;;;;;;;;;;;;;;;;;;;;
2021/04/18 16:59:35;;;;;;;8.47;7.60;;;17.30;90.30;;;;;;6020066;23;20442;-87
2021/04/18 17:06:36;;;;;;;10.60;8.20;;;17.10;90.30;;;;;;5784010;24;20456;-86
2021/04/18 17:09:26;;;;;;;7.13;6.40;;;17.10;90.30;;;;;;5834991;23;20485;-87
2021/04/18 17:15:01;;;;;;;7.37;6.67;;;16.90;90.30;;;;;;6100310;23;20428;-87
2021/04/18 17:17:58;;;;;;;7.90;7.13;;;16.80;90.30;;;;;;6111554;23;20528;-87
2021/04/18 17:21:19;;;;;;;8.67;7.40;;;16.80;90.40;;;;;;6111696;23;20443;-87
2021/04/18 17:24:13;;;;;;;9.70;7.75;;;16.80;90.40;;;;;;6107436;23;20430;-87
2021/04/18 17:30:47;;;;;;;8.53;6.90;;;16.70;90.50;;;;;;6092696;23;20463;-87
2021/04/18 17:33:15;;;;;;;7.87;7.07;;;16.60;90.50;;;;;;6112025;23;20398;-87
2021/04/18 17:35:44;;;;;;;8.00;7.30;;;16.50;90.50;;;;;;6113619;23;20428;-87
2021/04/18 17:38:14;;;;;;;9.70;7.60;;;16.50;90.60;;;;;;6113326;23;20419;-87
2021/04/18 17:40:42;;;;;;;8.00;7.20;;;16.40;90.60;;;;;;6112469;23;20440;-87
2021/04/18 17:43:13;;;;;;;9.30;8.50;;;16.40;90.70;;;;;;6112531;23;20505;-87
2021/04/18 17:45:44;;;;;;;11.20;9.10;;;16.30;91.00;;;;;;6136181;23;20413;-87
2021/04/18 17:48:28;;;;;;;8.70;7.73;;;16.30;90.80;;;;;;6110815;23;20416;-87
2021/04/18 17:55:22;;;;;;;10.13;8.50;;;16.20;91.00;;;;;;5924438;24;20945;-87
2021/04/18 17:57:53;;;;;;;9.70;8.90;;;16.00;90.90;;;;;;6030749;23;20457;-87
2021/04/18 18:00:22;;;;;;;11.23;9.00;;;16.00;91.00;;;;;;6083402;23;20494;-87
2021/04/18 18:02:50;;;;;;;9.70;8.83;;;16.00;91.10;;;;;;6049977;23;20426;-87
2021/04/18 18:05:20;;;;;;;8.63;7.77;;;15.90;91.10;;;;;;6075006;23;20410;-88
2021/04/18 18:07:49;;;;;;;11.50;8.97;;;15.90;91.20;;;;;;6051389;23;20410;-87
2021/04/18 18:10:19;;;;;;;11.83;9.27;;;15.80;91.20;;;;;;6051103;23;20470;-87
2021/04/18 18:12:48;;;;;;;10.77;8.30;;;15.90;91.30;;;;;;6049539;23;20415;-87
2021/04/18 18:15:18;;;;;;;9.93;9.03;;;15.80;91.30;;;;;;6050052;23;20397;-87